Time;durP1;ratioP1;P1;durP2;ratioP2;P2;SDS_P1;SDS_P2;PMS_P1;PMS_P2;Temp;Humidity;BMP_temperature;BMP_pressure;BME280_temperature;BME280_humidity;BME280_pressure;Samples;Min_cycle;Max_cycle;Signal;HPM_P1;HPM_P2
2022/02/13 00:01:03;;;;;;;11.13;9.90;;;;;;;;;;5032645;28;24997;-59
2022/02/13 00:03:28;;;;;;;10.90;9.90;;;;;;;;;;5036954;28;24910;-59
2022/02/13 00:05:53;;;;;;;12.10;10.50;;;;;;;;;;5040324;28;24766;-59
2022/02/13 00:08:18;;;;;;;11.30;10.20;;;;;;;;;;5041751;28;24422;-59
2022/02/13 00:10:44;;;;;;;11.80;10.60;;;;;;;;;;5036357;28;24559;-60
2022/02/13 00:13:09;;;;;;;10.93;9.93;;;;;;;;;;5029523;28;24473;-59
2022/02/13 00:15:34;;;;;;;10.83;9.83;;;;;;;;;;5029063;28;24500;-59
2022/02/13 00:17:59;;;;;;;11.02;9.93;;;;;;;;;;5034275;28;24423;-59
2022/02/13 00:20:25;;;;;;;10.80;9.77;;;;;;;;;;5027236;28;24431;-59
2022/02/13 00:22:50;;;;;;;11.80;10.57;;;;;;;;;;5029200;28;24438;-60
2022/02/13 00:25:15;;;;;;;10.63;9.65;;;;;;;;;;5040534;28;24954;-58
2022/02/13 00:27:40;;;;;;;10.70;9.60;;;;;;;;;;5041358;28;25271;-58
2022/02/13 00:30:09;;;;;;;11.23;10.13;;;;;;;;;;5043798;28;24992;-59
2022/02/13 00:32:35;;;;;;;10.50;9.43;;;;;;;;;;5037522;28;24515;-59
2022/02/13 00:35:00;;;;;;;10.33;9.23;;;;;;;;;;5033482;28;24502;-59
2022/02/13 00:37:25;;;;;;;11.40;10.20;;;;;;;;;;5042802;28;24407;-59
2022/02/13 00:39:50;;;;;;;11.70;10.50;;;;;;;;;;5029962;28;24566;-58
2022/02/13 00:42:15;;;;;;;10.32;9.32;;;;;;;;;;5034522;28;24408;-58
2022/02/13 00:44:41;;;;;;;10.55;9.45;;;;;;;;;;5028956;28;24579;-58
2022/02/13 00:47:06;;;;;;;10.70;9.70;;;;;;;;;;5032192;28;24408;-60
2022/02/13 00:49:31;;;;;;;10.63;9.63;;;;;;;;;;5031540;28;24519;-60
2022/02/13 00:51:56;;;;;;;12.50;11.13;;;;;;;;;;5035449;28;24467;-59
2022/02/13 00:54:22;;;;;;;11.30;10.10;;;;;;;;;;5041012;28;24765;-59
2022/02/13 00:56:47;;;;;;;10.70;9.70;;;;;;;;;;5044230;28;24491;-57
2022/02/13 00:59:12;;;;;;;11.83;10.60;;;;;;;;;;5033522;28;24428;-58
2022/02/13 01:01:37;;;;;;;10.67;9.67;;;;;;;;;;5036257;28;24423;-58
2022/02/13 01:04:03;;;;;;;11.70;10.50;;;;;;;;;;5029363;28;24585;-58
2022/02/13 01:06:28;;;;;;;11.00;9.90;;;;;;;;;;5043645;28;24427;-58
2022/02/13 01:08:54;;;;;;;11.87;10.67;;;;;;;;;;5045869;28;24411;-58
2022/02/13 01:11:19;;;;;;;11.57;10.33;;;;;;;;;;5028113;28;24419;-58
2022/02/13 01:13:48;;;;;;;10.33;9.33;;;;;;;;;;5028692;28;24583;-58
2022/02/13 01:16:13;;;;;;;11.48;10.38;;;;;;;;;;5028294;28;24500;-60
2022/02/13 01:18:38;;;;;;;11.80;10.60;;;;;;;;;;5042288;28;25032;-59
2022/02/13 01:21:03;;;;;;;10.73;9.73;;;;;;;;;;5035296;28;24427;-59
2022/02/13 01:23:28;;;;;;;11.30;10.00;;;;;;;;;;5032007;28;24420;-59
2022/02/13 01:25:53;;;;;;;11.52;10.43;;;;;;;;;;5028726;28;24419;-59
2022/02/13 01:28:19;;;;;;;11.80;10.10;;;;;;;;;;5028142;28;24380;-60
2022/02/13 01:30:46;;;;;;;11.27;10.17;;;;;;;;;;5027722;28;24415;-59
2022/02/13 01:33:11;;;;;;;11.40;10.30;;;;;;;;;;5033403;28;24518;-56
2022/02/13 01:35:36;;;;;;;12.15;10.90;;;;;;;;;;5035429;28;24604;-59
2022/02/13 01:38:01;;;;;;;12.00;10.80;;;;;;;;;;5039751;28;24415;-56
2022/02/13 01:40:26;;;;;;;10.75;9.65;;;;;;;;;;5023932;28;24435;-57
2022/02/13 01:42:52;;;;;;;11.87;10.67;;;;;;;;;;5035074;28;24484;-58
2022/02/13 01:45:17;;;;;;;12.25;10.95;;;;;;;;;;5029700;28;24412;-59
2022/02/13 01:47:42;;;;;;;11.43;10.33;;;;;;;;;;5033315;28;24991;-58
2022/02/13 01:50:09;;;;;;;10.97;9.97;;;;;;;;;;5036026;28;24944;-58
2022/02/13 01:52:35;;;;;;;11.60;10.50;;;;;;;;;;5040339;28;24905;-58
2022/02/13 01:55:01;;;;;;;13.05;11.75;;;;;;;;;;5030641;28;24419;-58
2022/02/13 01:57:26;;;;;;;10.55;9.55;;;;;;;;;;5040036;28;25340;-59
2022/02/13 01:59:51;;;;;;;11.23;10.10;;;;;;;;;;5029851;28;24442;-58
2022/02/13 02:02:17;;;;;;;11.45;10.32;;;;;;;;;;5035711;28;24458;-59
2022/02/13 02:04:42;;;;;;;10.87;9.77;;;;;;;;;;5034069;28;24848;-58
2022/02/13 02:07:07;;;;;;;11.33;10.23;;;;;;;;;;5027021;28;24415;-57
2022/02/13 02:09:32;;;;;;;12.03;10.93;;;;;;;;;;5031122;28;24426;-59
2022/02/13 02:12:02;;;;;;;12.73;11.48;;;;;;;;;;5028701;28;24912;-58
2022/02/13 02:14:27;;;;;;;12.40;11.20;;;;;;;;;;5033381;28;24415;-58
2022/02/13 02:16:52;;;;;;;11.80;10.70;;;;;;;;;;5030771;28;24416;-58
2022/02/13 02:19:18;;;;;;;11.60;10.40;;;;;;;;;;5042743;28;24423;-59
2022/02/13 02:21:43;;;;;;;10.20;9.20;;;;;;;;;;5032102;28;25017;-59
2022/02/13 02:24:09;;;;;;;11.07;9.98;;;;;;;;;;5034249;28;24485;-58
2022/02/13 02:26:35;;;;;;;11.63;10.50;;;;;;;;;;5029051;28;24400;-58
2022/02/13 02:29:00;;;;;;;12.30;11.10;;;;;;;;;;5039039;28;24419;-58
2022/02/13 02:31:25;;;;;;;12.10;10.93;;;;;;;;;;5031866;28;24411;-59
2022/02/13 02:33:50;;;;;;;11.85;10.75;;;;;;;;;;5032022;28;24775;-58
2022/02/13 02:36:16;;;;;;;11.90;10.70;;;;;;;;;;5025477;28;24779;-58
2022/02/13 02:38:41;;;;;;;11.90;10.70;;;;;;;;;;5035492;28;24450;-58
2022/02/13 02:41:06;;;;;;;11.63;10.53;;;;;;;;;;5041858;28;24427;-59
2022/02/13 02:43:31;;;;;;;10.70;9.70;;;;;;;;;;5030093;28;24419;-60
2022/02/13 02:45:56;;;;;;;10.93;9.93;;;;;;;;;;5025247;28;25049;-60
2022/02/13 02:48:22;;;;;;;12.30;11.10;;;;;;;;;;5025588;28;24400;-60
2022/02/13 02:50:47;;;;;;;12.30;11.18;;;;;;;;;;5029186;28;24499;-57
2022/02/13 02:53:12;;;;;;;12.53;11.23;;;;;;;;;;5034970;28;24987;-58
2022/02/13 02:55:37;;;;;;;10.70;9.60;;;;;;;;;;5035003;28;24408;-59
2022/02/13 02:58:02;;;;;;;12.33;11.13;;;;;;;;;;5038998;28;24974;-59
2022/02/13 03:00:28;;;;;;;11.82;10.73;;;;;;;;;;5032397;28;24436;-58
2022/02/13 03:02:53;;;;;;;11.73;10.63;;;;;;;;;;5027038;28;24451;-58
2022/02/13 03:05:18;;;;;;;11.00;10.00;;;;;;;;;;5027677;28;24499;-59
2022/02/13 03:07:43;;;;;;;11.77;10.67;;;;;;;;;;5026194;28;24977;-59
2022/02/13 03:10:08;;;;;;;11.40;10.30;;;;;;;;;;5040080;28;24442;-61
2022/02/13 03:12:34;;;;;;;11.20;10.03;;;;;;;;;;5029635;28;24420;-58
2022/02/13 03:14:59;;;;;;;10.50;9.50;;;;;;;;;;5026032;28;24938;-59
2022/02/13 03:17:24;;;;;;;11.05;10.05;;;;;;;;;;5033884;28;24929;-60
2022/02/13 03:19:49;;;;;;;10.38;9.38;;;;;;;;;;5024443;28;24456;-59
2022/02/13 03:22:14;;;;;;;10.13;9.13;;;;;;;;;;5034192;28;24473;-59
2022/02/13 03:24:40;;;;;;;11.00;9.98;;;;;;;;;;5029323;28;24404;-59
2022/02/13 03:27:05;;;;;;;9.87;8.87;;;;;;;;;;5027265;28;24485;-59
2022/02/13 03:29:30;;;;;;;10.33;8.60;;;;;;;;;;5029719;28;24411;-60
2022/02/13 03:31:55;;;;;;;10.45;9.45;;;;;;;;;;5031425;28;24431;-59
2022/02/13 03:34:20;;;;;;;10.27;9.10;;;;;;;;;;5025289;28;24415;-58
2022/02/13 03:36:46;;;;;;;11.90;10.00;;;;;;;;;;5027477;28;25028;-59
2022/02/13 03:39:12;;;;;;;10.05;9.10;;;;;;;;;;5026512;28;24990;-60
2022/02/13 03:41:37;;;;;;;9.90;9.00;;;;;;;;;;5033712;28;24422;-59
2022/02/13 03:44:02;;;;;;;10.30;9.20;;;;;;;;;;5035409;28;25128;-59
2022/02/13 03:46:27;;;;;;;10.27;9.27;;;;;;;;;;5033678;28;24474;-59
2022/02/13 03:48:52;;;;;;;9.85;8.85;;;;;;;;;;5045907;28;24499;-59
2022/02/13 03:51:18;;;;;;;9.87;8.87;;;;;;;;;;5041009;28;24427;-59
2022/02/13 03:53:43;;;;;;;9.93;8.93;;;;;;;;;;5032762;28;24415;-57
2022/02/13 03:56:08;;;;;;;9.90;8.90;;;;;;;;;;5036334;28;24997;-57
2022/02/13 03:58:33;;;;;;;10.13;9.13;;;;;;;;;;5035824;28;24411;-59
2022/02/13 04:00:59;;;;;;;9.50;8.60;;;;;;;;;;5033124;28;24854;-59
2022/02/13 04:03:24;;;;;;;10.00;9.10;;;;;;;;;;5028164;28;24412;-60
2022/02/13 04:05:51;;;;;;;11.50;9.10;;;;;;;;;;5031001;28;24509;-59
2022/02/13 04:08:17;;;;;;;10.30;9.30;;;;;;;;;;5029878;28;25007;-59
2022/02/13 04:10:42;;;;;;;10.77;9.63;;;;;;;;;;5030630;28;24431;-59
2022/02/13 04:13:07;;;;;;;11.25;10.13;;;;;;;;;;5026244;28;24806;-58
2022/02/13 04:15:32;;;;;;;10.20;9.20;;;;;;;;;;5028564;28;24431;-58
2022/02/13 04:17:57;;;;;;;10.23;9.23;;;;;;;;;;5028802;28;24414;-58
2022/02/13 04:20:23;;;;;;;12.80;11.50;;;;;;;;;;5025999;28;24427;-58
2022/02/13 04:22:48;;;;;;;12.40;11.00;;;;;;;;;;5030024;28;24431;-58
2022/02/13 04:25:13;;;;;;;11.93;10.82;;;;;;;;;;5039663;28;24422;-58
2022/02/13 04:27:38;;;;;;;11.85;10.65;;;;;;;;;;5039543;28;24493;-58
2022/02/13 04:30:04;;;;;;;11.50;10.40;;;;;;;;;;5037321;28;24775;-58
2022/02/13 04:32:29;;;;;;;11.40;10.20;;;;;;;;;;5027203;28;24467;-59
2022/02/13 04:34:55;;;;;;;10.50;9.50;;;;;;;;;;5040530;28;24414;-59
2022/02/13 04:37:22;;;;;;;11.47;10.27;;;;;;;;;;5038606;28;25048;-58
2022/02/13 04:39:47;;;;;;;10.70;9.70;;;;;;;;;;5040348;28;24539;-59
2022/02/13 04:42:14;;;;;;;10.82;9.73;;;;;;;;;;5032164;28;22317;-58
2022/02/13 04:44:40;;;;;;;11.43;10.30;;;;;;;;;;5028625;28;24431;-58
2022/02/13 04:47:05;;;;;;;9.70;8.80;;;;;;;;;;5032922;28;25018;-59
2022/02/13 04:49:30;;;;;;;11.00;9.90;;;;;;;;;;5029375;28;24418;-59
2022/02/13 04:51:55;;;;;;;11.57;10.37;;;;;;;;;;5025553;28;24404;-58
2022/02/13 04:54:21;;;;;;;10.40;9.40;;;;;;;;;;5040236;28;24429;-59
2022/02/13 04:56:46;;;;;;;10.50;9.50;;;;;;;;;;5033205;28;24511;-58
2022/02/13 04:59:11;;;;;;;10.98;9.40;;;;;;;;;;5028721;28;24416;-58
2022/02/13 05:01:36;;;;;;;10.40;9.40;;;;;;;;;;5030186;28;25042;-58
2022/02/13 05:04:01;;;;;;;11.90;10.70;;;;;;;;;;5029817;28;24423;-58
2022/02/13 05:06:26;;;;;;;11.40;10.23;;;;;;;;;;5026652;28;24968;-58
2022/02/13 05:08:53;;;;;;;10.70;9.60;;;;;;;;;;5028324;28;24427;-59
2022/02/13 05:11:18;;;;;;;11.60;10.60;;;;;;;;;;5028237;28;24968;-58
2022/02/13 05:13:44;;;;;;;13.60;11.30;;;;;;;;;;5027891;28;24435;-58
2022/02/13 05:16:09;;;;;;;11.13;10.03;;;;;;;;;;5029061;28;24473;-58
2022/02/13 05:18:34;;;;;;;10.80;9.80;;;;;;;;;;5032279;28;24438;-58
2022/02/13 05:21:00;;;;;;;12.18;10.98;;;;;;;;;;5036530;28;24458;-59
2022/02/13 05:23:25;;;;;;;11.40;10.30;;;;;;;;;;5029927;28;24436;-59
2022/02/13 05:25:50;;;;;;;11.65;10.45;;;;;;;;;;5029279;28;24499;-60
2022/02/13 05:28:15;;;;;;;12.80;11.60;;;;;;;;;;5030399;28;24419;-59
2022/02/13 05:30:40;;;;;;;11.70;10.60;;;;;;;;;;5041857;28;24415;-60
2022/02/13 05:33:05;;;;;;;14.35;12.82;;;;;;;;;;5033127;28;25108;-58
2022/02/13 05:35:31;;;;;;;13.52;12.23;;;;;;;;;;5030096;28;24422;-58
2022/02/13 05:37:56;;;;;;;12.60;11.40;;;;;;;;;;5036209;28;24431;-58
2022/02/13 05:40:21;;;;;;;13.95;12.23;;;;;;;;;;5024988;28;25088;-59
2022/02/13 05:42:46;;;;;;;13.67;12.37;;;;;;;;;;5026231;28;24469;-59
2022/02/13 05:45:11;;;;;;;13.77;12.30;;;;;;;;;;5035590;28;24476;-59
2022/02/13 05:47:37;;;;;;;13.43;12.13;;;;;;;;;;5037162;28;24426;-59
2022/02/13 05:50:02;;;;;;;15.30;13.07;;;;;;;;;;5025798;28;24504;-59
2022/02/13 05:52:27;;;;;;;13.25;11.65;;;;;;;;;;5033149;28;24424;-58
2022/02/13 05:54:53;;;;;;;15.27;13.77;;;;;;;;;;5045389;28;24411;-59
2022/02/13 05:57:18;;;;;;;13.95;12.45;;;;;;;;;;5030163;28;24517;-59
2022/02/13 05:59:43;;;;;;;13.20;11.80;;;;;;;;;;5036163;28;24674;-58
2022/02/13 06:02:08;;;;;;;13.90;12.50;;;;;;;;;;5029261;28;24419;-59
2022/02/13 06:04:33;;;;;;;14.10;12.70;;;;;;;;;;5028614;28;24493;-58
2022/02/13 06:06:59;;;;;;;13.73;12.33;;;;;;;;;;5024801;28;24465;-58
2022/02/13 06:09:24;;;;;;;12.80;11.50;;;;;;;;;;5025808;28;24400;-58
2022/02/13 06:11:50;;;;;;;12.57;11.38;;;;;;;;;;5035928;28;25018;-59
2022/02/13 06:14:15;;;;;;;13.03;11.63;;;;;;;;;;5032769;28;24455;-59
2022/02/13 06:16:40;;;;;;;12.47;11.20;;;;;;;;;;5035464;28;24945;-59
2022/02/13 06:19:06;;;;;;;13.00;11.73;;;;;;;;;;5031288;28;24445;-59
2022/02/13 06:21:31;;;;;;;12.67;11.47;;;;;;;;;;5030114;28;24516;-59
2022/02/13 06:23:57;;;;;;;12.27;11.07;;;;;;;;;;5028571;28;24459;-60
2022/02/13 06:26:22;;;;;;;12.47;11.17;;;;;;;;;;5036867;28;24488;-59
2022/02/13 06:28:47;;;;;;;12.60;11.40;;;;;;;;;;5028981;28;24474;-61
2022/02/13 06:31:13;;;;;;;12.40;11.18;;;;;;;;;;5027329;28;24501;-60
2022/02/13 06:33:38;;;;;;;12.93;11.67;;;;;;;;;;5044477;28;24469;-61
2022/02/13 06:36:03;;;;;;;12.50;11.30;;;;;;;;;;5029557;28;25013;-58
2022/02/13 06:38:28;;;;;;;12.20;10.50;;;;;;;;;;5040239;28;24497;-58
2022/02/13 06:40:54;;;;;;;11.40;10.30;;;;;;;;;;5029009;28;24512;-58
2022/02/13 06:43:19;;;;;;;12.55;11.35;;;;;;;;;;5040316;28;24419;-59
2022/02/13 06:45:44;;;;;;;11.30;10.20;;;;;;;;;;5028081;28;24822;-58
2022/02/13 06:48:09;;;;;;;10.17;9.17;;;;;;;;;;5025406;28;24404;-59
2022/02/13 06:50:35;;;;;;;10.73;9.63;;;;;;;;;;5029619;28;24486;-58
2022/02/13 06:53:00;;;;;;;11.00;9.90;;;;;;;;;;5033629;28;24401;-59
2022/02/13 06:55:25;;;;;;;11.00;10.00;;;;;;;;;;5031423;28;24973;-59
2022/02/13 06:57:51;;;;;;;10.80;9.80;;;;;;;;;;5030257;28;24419;-58
2022/02/13 07:00:16;;;;;;;10.57;9.50;;;;;;;;;;5036142;28;25016;-58
2022/02/13 07:02:42;;;;;;;10.80;9.80;;;;;;;;;;5029439;28;24412;-59
2022/02/13 07:05:08;;;;;;;10.88;9.77;;;;;;;;;;5034210;28;24787;-59
2022/02/13 07:07:33;;;;;;;10.63;9.65;;;;;;;;;;5032249;28;24453;-58
2022/02/13 07:09:58;;;;;;;11.13;10.02;;;;;;;;;;5052894;28;24515;-58
2022/02/13 07:12:23;;;;;;;11.35;10.15;;;;;;;;;;5029011;28;24552;-60
2022/02/13 07:14:49;;;;;;;10.05;9.15;;;;;;;;;;5029456;28;24423;-59
2022/02/13 07:17:14;;;;;;;11.68;10.45;;;;;;;;;;5032049;28;25043;-59
2022/02/13 07:19:39;;;;;;;11.93;10.83;;;;;;;;;;5034653;28;24511;-58
2022/02/13 07:22:05;;;;;;;11.37;10.27;;;;;;;;;;5032661;28;24416;-58
2022/02/13 07:24:30;;;;;;;11.15;10.00;;;;;;;;;;5039812;28;24422;-59
2022/02/13 07:26:56;;;;;;;11.93;10.73;;;;;;;;;;5034230;28;24439;-60
2022/02/13 07:29:21;;;;;;;11.07;9.98;;;;;;;;;;5043987;28;24460;-61
2022/02/13 07:31:46;;;;;;;12.57;11.47;;;;;;;;;;5034253;28;24514;-60
2022/02/13 07:34:11;;;;;;;13.18;11.88;;;;;;;;;;5043355;28;25075;-60
2022/02/13 07:36:36;;;;;;;12.80;11.50;;;;;;;;;;5034655;28;24507;-59
2022/02/13 07:39:02;;;;;;;13.67;12.17;;;;;;;;;;5030079;28;24615;-60
2022/02/13 07:41:27;;;;;;;13.07;11.70;;;;;;;;;;5036453;28;24481;-60
2022/02/13 07:43:53;;;;;;;13.25;11.85;;;;;;;;;;5037743;28;24787;-59
2022/02/13 07:46:18;;;;;;;13.37;11.97;;;;;;;;;;5039474;28;24408;-60
2022/02/13 07:48:43;;;;;;;12.33;11.10;;;;;;;;;;5041832;28;24696;-60
2022/02/13 07:51:09;;;;;;;12.93;11.63;;;;;;;;;;5035858;28;24657;-60
2022/02/13 07:53:34;;;;;;;13.17;11.80;;;;;;;;;;5033846;28;24450;-60
2022/02/13 07:55:59;;;;;;;12.33;11.10;;;;;;;;;;5037728;28;24434;-60
2022/02/13 07:58:30;;;;;;;11.98;10.88;;;;;;;;;;5041500;28;24455;-60
2022/02/13 08:00:55;;;;;;;12.73;11.43;;;;;;;;;;5042080;28;24428;-60
2022/02/13 08:03:20;;;;;;;12.77;11.47;;;;;;;;;;5037769;28;24418;-61
2022/02/13 08:05:45;;;;;;;12.35;11.15;;;;;;;;;;5043836;28;24941;-61
2022/02/13 08:08:10;;;;;;;12.98;11.70;;;;;;;;;;5047130;28;24418;-60
2022/02/13 08:10:38;;;;;;;12.80;11.50;;;;;;;;;;5038256;28;24505;-60
2022/02/13 08:13:03;;;;;;;13.25;11.55;;;;;;;;;;5030991;28;24423;-60
2022/02/13 08:15:28;;;;;;;12.63;11.33;;;;;;;;;;5042386;28;24420;-60
2022/02/13 08:17:54;;;;;;;12.52;11.32;;;;;;;;;;5033980;28;24415;-58
2022/02/13 08:20:20;;;;;;;12.82;11.52;;;;;;;;;;5034658;28;24424;-58
2022/02/13 08:22:45;;;;;;;12.30;11.10;;;;;;;;;;5031459;28;24976;-59
2022/02/13 08:25:10;;;;;;;13.53;12.13;;;;;;;;;;5029475;28;24427;-56
2022/02/13 08:27:35;;;;;;;12.60;11.37;;;;;;;;;;5029867;28;24505;-59
2022/02/13 08:30:00;;;;;;;12.77;11.48;;;;;;;;;;5033828;28;24779;-59
2022/02/13 08:32:26;;;;;;;12.48;11.18;;;;;;;;;;5040607;28;24862;-59
2022/02/13 08:34:53;;;;;;;12.80;11.00;;;;;;;;;;5042818;28;24420;-58
2022/02/13 08:37:18;;;;;;;13.32;11.30;;;;;;;;;;5033039;28;24769;-59
2022/02/13 08:39:43;;;;;;;13.40;12.00;;;;;;;;;;5049232;28;24447;-58
2022/02/13 08:42:08;;;;;;;13.10;11.80;;;;;;;;;;5031699;28;24407;-59
2022/02/13 08:44:34;;;;;;;14.93;11.87;;;;;;;;;;5034132;28;25371;-59
2022/02/13 08:46:59;;;;;;;13.00;11.70;;;;;;;;;;5027898;28;24903;-58
2022/02/13 08:49:24;;;;;;;13.03;11.40;;;;;;;;;;5034755;28;24427;-58
2022/02/13 08:51:49;;;;;;;12.20;11.00;;;;;;;;;;5037539;28;25016;-60
2022/02/13 08:54:14;;;;;;;15.68;11.75;;;;;;;;;;5038146;28;24416;-58
2022/02/13 08:56:40;;;;;;;13.83;12.43;;;;;;;;;;5033342;28;24474;-60
2022/02/13 08:59:05;;;;;;;12.70;11.50;;;;;;;;;;5034945;28;24514;-59
2022/02/13 09:01:30;;;;;;;13.17;11.87;;;;;;;;;;5036164;28;24570;-59
2022/02/13 09:03:55;;;;;;;13.23;11.83;;;;;;;;;;5040455;28;24407;-59
2022/02/13 09:06:20;;;;;;;13.48;12.07;;;;;;;;;;5036566;28;24419;-58
2022/02/13 09:08:46;;;;;;;14.07;12.67;;;;;;;;;;5031809;28;24789;-59
2022/02/13 09:11:11;;;;;;;13.90;12.50;;;;;;;;;;5031187;28;25237;-58
2022/02/13 09:13:36;;;;;;;13.47;12.10;;;;;;;;;;5038914;28;24507;-59
2022/02/13 09:16:02;;;;;;;13.18;11.82;;;;;;;;;;5033943;28;24451;-60
2022/02/13 09:18:27;;;;;;;14.00;12.50;;;;;;;;;;5031986;28;24427;-58
2022/02/13 09:20:52;;;;;;;13.82;12.52;;;;;;;;;;5026530;28;24478;-58
2022/02/13 09:23:17;;;;;;;13.50;12.20;;;;;;;;;;5028006;28;24408;-59
2022/02/13 09:25:43;;;;;;;13.80;12.32;;;;;;;;;;5035948;28;24407;-59
2022/02/13 09:28:08;;;;;;;14.13;12.52;;;;;;;;;;5040443;28;24412;-59
2022/02/13 09:30:33;;;;;;;13.50;12.20;;;;;;;;;;5027828;28;24411;-59
2022/02/13 09:32:59;;;;;;;13.50;12.10;;;;;;;;;;5027456;28;24431;-59
2022/02/13 09:35:24;;;;;;;13.90;12.50;;;;;;;;;;5027869;28;24392;-58
2022/02/13 09:37:50;;;;;;;12.97;11.60;;;;;;;;;;5029004;28;24945;-59
2022/02/13 09:40:16;;;;;;;13.83;12.43;;;;;;;;;;5047555;28;24501;-57
2022/02/13 09:42:42;;;;;;;14.17;12.67;;;;;;;;;;5046471;28;24411;-58
2022/02/13 09:45:07;;;;;;;15.43;12.52;;;;;;;;;;5047617;28;24722;-58
2022/02/13 09:47:32;;;;;;;14.47;13.07;;;;;;;;;;5047458;28;24534;-58
2022/02/13 09:49:58;;;;;;;14.23;11.88;;;;;;;;;;5031807;28;24407;-58
2022/02/13 09:52:23;;;;;;;14.07;12.77;;;;;;;;;;5027042;28;24452;-58
2022/02/13 09:54:48;;;;;;;14.20;12.90;;;;;;;;;;5027429;28;24400;-58
2022/02/13 10:00:00;;;;;;;12.70;11.50;;;;;;;;;;5046984;28;24445;-58
2022/02/13 10:02:33;;;;;;;12.13;10.93;;;;;;;;;;5045086;28;24484;-58
2022/02/13 10:04:59;;;;;;;12.80;11.50;;;;;;;;;;5034230;28;24503;-57
2022/02/13 10:07:24;;;;;;;12.70;11.40;;;;;;;;;;5027145;28;24546;-60
2022/02/13 10:09:56;;;;;;;12.73;11.43;;;;;;;;;;5027211;28;24478;-59
2022/02/13 10:12:31;;;;;;;12.10;10.90;;;;;;;;;;5043437;28;25366;-59
2022/02/13 10:14:56;;;;;;;11.65;10.48;;;;;;;;;;5037721;28;25228;-59
2022/02/13 10:17:21;;;;;;;10.87;9.87;;;;;;;;;;5027152;28;24491;-60
2022/02/13 10:19:53;;;;;;;11.20;10.10;;;;;;;;;;5027214;28;24407;-59
2022/02/13 10:22:33;;;;;;;12.60;9.97;;;;;;;;;;5026993;28;24454;-58
2022/02/13 10:25:12;;;;;;;11.02;9.93;;;;;;;;;;5027901;28;24458;-58
2022/02/13 10:27:43;;;;;;;9.85;8.85;;;;;;;;;;5026867;28;24459;-59
2022/02/13 10:30:09;;;;;;;10.20;9.30;;;;;;;;;;5045002;28;24400;-58
2022/02/13 10:32:39;;;;;;;10.87;9.67;;;;;;;;;;5046586;28;25032;-59
2022/02/13 10:35:05;;;;;;;9.95;9.05;;;;;;;;;;5046531;28;24406;-60
2022/02/13 10:37:36;;;;;;;11.05;9.93;;;;;;;;;;5046550;28;24409;-59
2022/02/13 10:40:05;;;;;;;11.30;10.10;;;;;;;;;;5044531;28;24489;-59
2022/02/13 10:42:31;;;;;;;10.50;9.40;;;;;;;;;;5046304;28;24490;-59
2022/02/13 10:45:14;;;;;;;11.48;10.27;;;;;;;;;;5046750;28;24402;-59
2022/02/13 10:47:39;;;;;;;11.98;10.27;;;;;;;;;;5045011;28;24439;-58
2022/02/13 10:50:05;;;;;;;12.40;10.20;;;;;;;;;;5046059;28;24521;-59
2022/02/13 10:52:30;;;;;;;10.88;9.23;;;;;;;;;;5045952;28;24393;-59
2022/02/13 10:54:56;;;;;;;11.10;10.00;;;;;;;;;;5046674;28;24407;-59
2022/02/13 10:57:21;;;;;;;10.77;9.60;;;;;;;;;;5041993;28;24416;-60
2022/02/13 10:59:47;;;;;;;10.80;9.70;;;;;;;;;;5026495;28;24771;-59
2022/02/13 11:02:12;;;;;;;11.13;9.40;;;;;;;;;;5026730;28;24396;-59
2022/02/13 11:04:37;;;;;;;11.10;10.00;;;;;;;;;;5026664;28;24399;-58
2022/02/13 11:07:03;;;;;;;10.83;9.70;;;;;;;;;;5027587;28;24462;-58
2022/02/13 11:09:29;;;;;;;11.20;9.97;;;;;;;;;;5032044;28;24403;-59
2022/02/13 11:11:57;;;;;;;10.65;9.50;;;;;;;;;;5046764;28;25108;-59
2022/02/13 11:14:49;;;;;;;10.00;9.00;;;;;;;;;;5045933;28;24984;-58
2022/02/13 11:17:26;;;;;;;11.48;9.60;;;;;;;;;;5044964;28;24426;-58
2022/02/13 11:19:52;;;;;;;10.50;9.40;;;;;;;;;;5026857;28;24439;-58
2022/02/13 11:22:17;;;;;;;10.13;8.90;;;;;;;;;;5023879;28;24403;-58
2022/02/13 11:24:47;;;;;;;11.27;10.17;;;;;;;;;;5025495;28;24412;-59
2022/02/13 11:27:17;;;;;;;10.10;9.10;;;;;;;;;;5024047;28;24388;-59
2022/02/13 11:29:53;;;;;;;11.67;10.47;;;;;;;;;;5034109;28;24783;-59
2022/02/13 11:32:47;;;;;;;10.82;9.82;;;;;;;;;;5044419;28;24453;-60
2022/02/13 11:35:15;;;;;;;11.00;9.63;;;;;;;;;;5044017;28;24431;-60
2022/02/13 11:37:47;;;;;;;11.02;9.80;;;;;;;;;;5045826;28;25126;-58
2022/02/13 11:40:31;;;;;;;12.20;9.60;;;;;;;;;;5028387;28;24542;-59
2022/02/13 11:42:56;;;;;;;11.07;9.88;;;;;;;;;;5026115;28;24388;-58
2022/02/13 11:45:21;;;;;;;10.70;9.70;;;;;;;;;;5025265;28;24426;-60
2022/02/13 11:47:46;;;;;;;11.30;10.20;;;;;;;;;;5026350;28;24408;-59
2022/02/13 11:50:19;;;;;;;10.80;9.70;;;;;;;;;;5026682;28;24519;-58
2022/02/13 11:52:52;;;;;;;11.50;10.30;;;;;;;;;;5044030;28;25003;-59
2022/02/13 11:55:18;;;;;;;11.00;9.30;;;;;;;;;;5044369;28;24406;-59
2022/02/13 11:58:13;;;;;;;10.10;9.10;;;;;;;;;;5043426;28;24387;-58
2022/02/13 12:00:44;;;;;;;9.98;8.98;;;;;;;;;;5019801;28;24448;-59
2022/02/13 12:03:13;;;;;;;10.20;8.20;;;;;;;;;;5027932;28;24448;-59
2022/02/13 12:05:38;;;;;;;9.70;8.80;;;;;;;;;;5024991;28;24404;-59
2022/02/13 12:08:03;;;;;;;10.00;9.00;;;;;;;;;;5031968;28;24418;-59
2022/02/13 12:10:30;;;;;;;9.30;8.30;;;;;;;;;;5049666;28;24947;-59
2022/02/13 12:13:15;;;;;;;9.65;8.73;;;;;;;;;;5047347;28;24419;-59
2022/02/13 12:15:47;;;;;;;9.27;8.35;;;;;;;;;;5048872;28;24526;-59
2022/02/13 12:18:14;;;;;;;8.65;7.63;;;;;;;;;;5049523;28;24493;-59
2022/02/13 12:20:39;;;;;;;8.80;7.90;;;;;;;;;;5049495;28;24502;-59
2022/02/13 12:23:06;;;;;;;7.93;7.13;;;;;;;;;;5047052;28;24434;-59
2022/02/13 12:25:36;;;;;;;8.80;7.90;;;;;;;;;;5049465;28;24502;-59
2022/02/13 12:28:02;;;;;;;9.35;7.80;;;;;;;;;;5049432;28;24471;-59
2022/02/13 12:30:27;;;;;;;8.93;8.00;;;;;;;;;;5049052;28;24482;-57
2022/02/13 12:32:56;;;;;;;11.40;8.47;;;;;;;;;;5047685;28;24522;-59
2022/02/13 12:35:25;;;;;;;8.63;7.82;;;;;;;;;;5048622;28;24399;-59
2022/02/13 12:37:51;;;;;;;8.00;7.30;;;;;;;;;;5049225;28;24402;-58
2022/02/13 12:40:17;;;;;;;9.35;7.68;;;;;;;;;;5030418;28;25020;-59
2022/02/13 12:42:44;;;;;;;9.43;8.00;;;;;;;;;;5029715;28;24477;-58
2022/02/13 12:45:10;;;;;;;8.50;7.70;;;;;;;;;;5039643;28;24756;-60
2022/02/13 12:47:37;;;;;;;9.25;8.35;;;;;;;;;;5029081;28;24470;-59
2022/02/13 12:50:04;;;;;;;8.52;7.60;;;;;;;;;;5031560;28;24412;-60
2022/02/13 12:52:30;;;;;;;9.23;8.23;;;;;;;;;;5042595;28;24457;-60
2022/02/13 12:54:56;;;;;;;10.50;9.48;;;;;;;;;;5027867;28;24515;-60
2022/02/13 12:57:28;;;;;;;9.73;8.50;;;;;;;;;;5033272;28;24412;-60
2022/02/13 12:59:53;;;;;;;9.93;8.30;;;;;;;;;;5035335;28;24493;-59
2022/02/13 13:02:25;;;;;;;8.67;7.77;;;;;;;;;;5027862;28;24597;-60
2022/02/13 13:04:50;;;;;;;7.93;7.13;;;;;;;;;;5028226;28;24961;-59
2022/02/13 13:07:23;;;;;;;8.50;7.70;;;;;;;;;;5032642;28;24482;-58
2022/02/13 13:09:50;;;;;;;8.90;7.90;;;;;;;;;;5031149;28;24507;-59
2022/02/13 13:12:16;;;;;;;9.90;8.90;;;;;;;;;;5027525;28;24489;-57
2022/02/13 13:14:41;;;;;;;10.90;9.80;;;;;;;;;;5027437;28;25224;-59
2022/02/13 13:17:07;;;;;;;10.37;8.17;;;;;;;;;;5032910;28;24451;-59
2022/02/13 13:19:33;;;;;;;8.50;7.50;;;;;;;;;;5027616;28;24412;-59
2022/02/13 13:21:58;;;;;;;8.32;7.53;;;;;;;;;;5038544;28;24458;-60
2022/02/13 13:24:25;;;;;;;8.45;7.57;;;;;;;;;;5035680;28;24419;-60
2022/02/13 13:26:58;;;;;;;8.40;7.35;;;;;;;;;;5039359;28;24454;-60
2022/02/13 13:29:29;;;;;;;7.30;6.20;;;;;;;;;;5034600;28;24424;-60
2022/02/13 13:32:04;;;;;;;8.60;7.70;;;;;;;;;;5031675;28;24434;-60
2022/02/13 13:34:30;;;;;;;7.75;6.95;;;;;;;;;;5027643;28;24416;-60
2022/02/13 13:36:56;;;;;;;9.23;8.33;;;;;;;;;;5038024;28;24422;-60
2022/02/13 13:39:22;;;;;;;9.70;8.40;;;;;;;;;;5045018;28;24490;-60
2022/02/13 13:41:47;;;;;;;6.67;5.87;;;;;;;;;;5042439;28;25235;-59
2022/02/13 13:44:18;;;;;;;6.50;5.10;;;;;;;;;;5030874;28;24961;-60
2022/02/13 13:46:43;;;;;;;6.45;4.80;;;;;;;;;;5027446;28;24962;-61
2022/02/13 13:49:08;;;;;;;6.37;4.20;;;;;;;;;;5030791;28;24502;-62
2022/02/13 13:51:33;;;;;;;4.63;4.23;;;;;;;;;;5043375;28;24447;-61
2022/02/13 13:53:58;;;;;;;5.40;4.22;;;;;;;;;;5027050;28;25171;-61
2022/02/13 13:56:24;;;;;;;5.40;4.13;;;;;;;;;;5037682;28;24770;-58
2022/02/13 13:58:49;;;;;;;6.60;4.38;;;;;;;;;;5042457;28;24419;-59
2022/02/13 14:01:14;;;;;;;4.38;3.97;;;;;;;;;;5045084;28;24593;-59
2022/02/13 14:03:39;;;;;;;6.32;4.78;;;;;;;;;;5047103;28;25176;-59
2022/02/13 14:06:04;;;;;;;5.00;4.50;;;;;;;;;;5047096;28;24515;-59
2022/02/13 14:08:29;;;;;;;6.60;4.33;;;;;;;;;;5045521;28;24573;-59
2022/02/13 14:10:55;;;;;;;5.40;4.40;;;;;;;;;;5047224;28;24431;-60
2022/02/13 14:13:20;;;;;;;4.50;4.10;;;;;;;;;;5031293;28;24972;-60
2022/02/13 14:15:45;;;;;;;5.17;4.67;;;;;;;;;;5034341;28;24593;-60
2022/02/13 14:18:10;;;;;;;5.63;4.27;;;;;;;;;;5041896;28;24428;-60
2022/02/13 14:20:36;;;;;;;4.47;4.07;;;;;;;;;;5045120;28;24430;-60
2022/02/13 14:23:01;;;;;;;5.37;4.30;;;;;;;;;;5040232;28;24506;-60